Taboao da Serra, Brazil
Current Conditions -  °F | °C
As of 12:00 AM on Sunday 21 Dec 2014 (Local Time) from SBSP Reporting Station
Clear Clear  
Wind Chill: 79°   Ceiling: Unl
Heat Index: 81°   Visibility: 6mi
Dew Point: 64°   Wind: 14mph
Humidity: 61%   Direction: 330°NNW
Pressure: 29.94"   Gusts: NA
Location:  23.6°S, 46.78°W
Report Text: SBSP 210200Z 33012KT CAVOK 26/18 Q1014
Loading
Personal Weather Stations






























Interactive Weather Map New forecast layout! Learn more

10-Day Weather Forecast

Advertisements
Track Severe Weather on mobile